createdAt,value
2018-06-13T00:00:13.495Z,60.95
2018-06-13T00:02:43.176Z,61.23
2018-06-13T00:05:13.080Z,61.37
2018-06-13T00:07:42.772Z,61.44
2018-06-13T00:10:14.174Z,61.19
2018-06-13T00:12:43.966Z,61.30
2018-06-13T00:15:14.531Z,61.48
2018-06-13T00:17:44.127Z,61.50
2018-06-13T00:20:14.189Z,61.38
2018-06-13T00:22:43.952Z,61.01
2018-06-13T00:25:15.102Z,61.20
2018-06-13T00:27:45.719Z,61.40
2018-06-13T00:30:15.475Z,61.63
2018-06-13T00:32:45.104Z,61.27
2018-06-13T00:35:14.746Z,61.90
2018-06-13T00:37:44.696Z,62.10
2018-06-13T00:40:14.325Z,61.62
2018-06-13T00:42:44.865Z,62.09
2018-06-13T00:45:14.607Z,62.20
2018-06-13T00:47:44.375Z,62.20
2018-06-13T00:50:14.055Z,62.31
2018-06-13T00:52:43.739Z,62.71
2018-06-13T00:55:13.621Z,62.34
2018-06-13T00:57:43.384Z,62.26
2018-06-13T01:00:13.076Z,62.03
2018-06-13T01:02:43.076Z,62.19
2018-06-13T01:05:13.105Z,62.51
2018-06-13T01:07:42.912Z,62.52
2018-06-13T01:10:13.214Z,62.39
2018-06-13T01:12:42.660Z,62.24
2018-06-13T01:15:12.363Z,62.58
2018-06-13T01:17:42.368Z,62.46
2018-06-13T01:20:13.108Z,62.05
2018-06-13T01:22:42.817Z,62.11
2018-06-13T01:25:12.627Z,62.58
2018-06-13T01:27:42.335Z,62.04
2018-06-13T01:30:12.042Z,62.58
2018-06-13T01:32:41.643Z,62.63
2018-06-13T01:35:11.234Z,63.02
2018-06-13T01:37:41.886Z,63.52
2018-06-13T01:40:11.605Z,63.41
2018-06-13T01:42:41.357Z,63.04
2018-06-13T01:45:10.982Z,63.21
2018-06-13T01:47:40.737Z,63.93
2018-06-13T01:50:11.097Z,63.97
2018-06-13T01:52:40.835Z,63.60
2018-06-13T01:55:10.557Z,63.57
2018-06-13T01:57:40.395Z,63.62
2018-06-13T02:00:10.206Z,64.13
2018-06-13T02:02:40.463Z,64.30
2018-06-13T02:05:12.062Z,64.11
2018-06-13T02:07:41.780Z,64.83
2018-06-13T02:10:11.621Z,65.07
2018-06-13T02:12:42.221Z,64.56
2018-06-13T02:15:12.004Z,64.44
2018-06-13T02:17:42.623Z,64.13
2018-06-13T02:20:12.453Z,64.59
2018-06-13T02:22:44.108Z,64.46
2018-06-13T02:25:13.759Z,64.26
2018-06-13T02:27:43.494Z,64.66
2018-06-13T02:30:13.243Z,64.69
2018-06-13T02:32:43.467Z,64.94
2018-06-13T02:35:13.823Z,64.53
2018-06-13T02:37:43.486Z,64.48
2018-06-13T02:40:13.193Z,64.69
2018-06-13T02:42:43.730Z,65.10
2018-06-13T02:45:13.943Z,64.84
2018-06-13T02:47:43.756Z,64.81
2018-06-13T02:50:13.841Z,65.23
2018-06-13T02:52:43.865Z,64.97
2018-06-13T02:55:13.531Z,65.01
2018-06-13T02:57:43.374Z,64.93
2018-06-13T03:00:14.000Z,64.84
2018-06-13T03:02:43.640Z,64.79
2018-06-13T03:05:15.002Z,64.23
2018-06-13T03:07:44.700Z,64.79
2018-06-13T03:10:14.348Z,64.53
2018-06-13T03:14:13.503Z,64.87
2018-06-13T03:16:43.188Z,64.53
2018-06-13T03:19:12.876Z,64.55
2018-06-13T03:21:42.635Z,64.78
2018-06-13T03:24:12.810Z,64.82
2018-06-13T03:26:42.958Z,64.41
2018-06-13T03:29:12.704Z,64.54
2018-06-13T03:31:42.535Z,64.39
2018-06-13T03:34:12.298Z,64.52
2018-06-13T03:36:43.022Z,64.72
2018-06-13T03:39:12.733Z,64.72
2018-06-13T03:41:42.535Z,64.60
2018-06-13T03:44:12.376Z,64.62
2018-06-13T03:46:42.805Z,64.41
2018-06-13T03:49:13.317Z,64.63
2018-06-13T03:51:43.688Z,64.42
2018-06-13T03:54:13.779Z,64.53
2018-06-13T03:56:43.494Z,64.84
2018-06-13T03:59:13.192Z,64.74
2018-06-13T04:01:42.909Z,64.25
2018-06-13T04:04:12.606Z,64.62
2018-06-13T04:06:42.615Z,64.54
2018-06-13T04:09:12.915Z,65.02
2018-06-13T04:11:42.727Z,64.93
2018-06-13T04:14:13.589Z,65.03
2018-06-13T04:16:44.422Z,64.81
2018-06-13T04:19:14.258Z,64.79
2018-06-13T04:21:44.347Z,64.35
2018-06-13T04:24:16.295Z,64.74
2018-06-13T04:26:46.739Z,64.65
2018-06-13T04:29:16.576Z,64.02
2018-06-13T04:31:47.576Z,63.54
2018-06-13T04:34:17.605Z,63.74
2018-06-13T04:36:50.686Z,63.38
2018-06-13T04:39:20.393Z,63.32
2018-06-13T04:41:51.820Z,63.10
2018-06-13T04:45:50.461Z,63.72
2018-06-13T04:48:20.547Z,63.40
2018-06-13T04:50:50.981Z,64.10
2018-06-13T04:53:20.855Z,63.60
2018-06-13T04:55:51.520Z,63.46
2018-06-13T04:58:24.210Z,63.28
2018-06-13T05:00:54.828Z,62.88
2018-06-13T05:03:24.882Z,63.28
2018-06-13T05:05:55.453Z,62.87
2018-06-13T05:08:26.856Z,63.09
2018-06-13T05:10:57.708Z,63.37
2018-06-13T05:13:28.603Z,63.44
2018-06-13T05:15:57.925Z,63.67
2018-06-13T05:18:27.946Z,62.96
2018-06-13T05:20:59.189Z,63.10
2018-06-13T05:23:31.685Z,62.70
2018-06-13T05:26:01.574Z,62.54
2018-06-13T05:28:31.520Z,62.87
2018-06-13T05:31:01.136Z,62.60
2018-06-13T05:33:31.711Z,62.97
2018-06-13T05:36:02.205Z,63.42
2018-06-13T05:38:31.928Z,63.36
2018-06-13T05:41:01.685Z,63.27
2018-06-13T05:43:31.301Z,63.78
2018-06-13T05:46:01.759Z,63.56
2018-06-13T05:48:31.530Z,63.22
2018-06-13T05:51:02.265Z,63.08
2018-06-13T05:53:33.646Z,62.89
2018-06-13T05:56:04.423Z,63.02
2018-06-13T05:58:34.734Z,63.08
2018-06-13T06:01:04.589Z,63.94
2018-06-13T06:03:35.312Z,63.63
2018-06-13T06:06:05.952Z,64.09
2018-06-13T06:08:36.277Z,64.24
2018-06-13T06:11:05.973Z,64.36
2018-06-13T06:13:35.653Z,64.33
2018-06-13T06:16:05.724Z,64.20
2018-06-13T06:18:36.499Z,63.27
2018-06-13T06:21:06.682Z,62.71
2018-06-13T06:23:37.207Z,62.72
2018-06-13T06:26:07.665Z,62.98
2018-06-13T06:28:38.624Z,63.24
2018-06-13T06:31:09.827Z,63.44
2018-06-13T06:33:40.157Z,62.64
2018-06-13T06:36:09.953Z,62.54
2018-06-13T06:38:39.540Z,63.35
2018-06-13T06:41:09.650Z,63.80
2018-06-13T06:43:39.313Z,63.23
2018-06-13T06:46:08.961Z,62.83
2018-06-13T06:48:38.608Z,62.44
2018-06-13T06:51:08.527Z,62.04
2018-06-13T06:53:38.171Z,61.93
2018-06-13T06:56:07.911Z,62.10
2018-06-13T06:58:37.772Z,62.25
2018-06-13T07:01:08.582Z,62.07
2018-06-13T07:03:38.740Z,60.61
2018-06-13T07:06:08.987Z,60.86
2018-06-13T07:08:39.332Z,60.66
2018-06-13T07:11:09.646Z,60.77
2018-06-13T07:13:40.803Z,60.61
2018-06-13T07:16:10.632Z,60.03
2018-06-13T07:18:40.353Z,60.04
2018-06-13T07:21:10.708Z,59.92
2018-06-13T07:23:40.416Z,59.93
2018-06-13T07:26:10.086Z,59.93
2018-06-13T07:28:41.094Z,59.38
2018-06-13T07:31:10.760Z,59.44
2018-06-13T07:33:40.464Z,59.59
2018-06-13T07:36:11.088Z,59.18
2018-06-13T07:38:41.244Z,59.13
2018-06-13T07:41:11.157Z,58.91
2018-06-13T07:43:41.258Z,59.12
2018-06-13T07:46:12.180Z,58.55
2018-06-13T07:48:41.937Z,58.73
2018-06-13T07:51:11.730Z,58.41
2018-06-13T07:53:42.077Z,58.41
2018-06-13T07:56:11.989Z,58.77
2018-06-13T07:58:42.600Z,58.71
2018-06-13T08:01:12.373Z,58.34
2018-06-13T08:03:42.038Z,59.61
2018-06-13T08:06:13.182Z,60.75
2018-06-13T08:13:20.530Z,62.29
2018-06-13T08:15:50.606Z,62.29
2018-06-13T08:18:20.482Z,62.53
2018-06-13T08:20:50.192Z,61.89
2018-06-13T08:23:20.237Z,62.68
2018-06-13T08:25:51.348Z,62.57
2018-06-13T08:28:21.729Z,62.13
2018-06-13T08:30:51.672Z,61.79
2018-06-13T08:33:23.333Z,62.03
2018-06-13T08:35:54.611Z,61.39
2018-06-13T08:38:24.906Z,60.52
2018-06-13T08:40:59.449Z,60.02
2018-06-13T08:43:30.705Z,58.60
2018-06-13T08:46:00.617Z,58.60
2018-06-13T08:48:30.536Z,58.60
2018-06-13T08:51:00.505Z,58.41
2018-06-13T08:53:30.464Z,58.12
2018-06-13T08:56:00.423Z,58.25
2018-06-13T08:58:31.185Z,57.99
2018-06-13T09:01:01.014Z,57.97
2018-06-13T09:03:30.855Z,57.06
2018-06-13T09:06:00.622Z,56.96
2018-06-13T09:08:30.516Z,57.32
2018-06-13T09:11:00.510Z,57.82
2018-06-13T09:13:30.356Z,58.54
2018-06-13T09:16:00.197Z,58.97
2018-06-13T09:18:36.171Z,59.17
2018-06-13T09:21:06.478Z,59.77
2018-06-13T09:23:36.063Z,60.11
2018-06-13T09:26:05.765Z,61.28
2018-06-13T09:28:36.135Z,61.35
2018-06-13T09:31:07.979Z,61.61
2018-06-13T09:33:39.852Z,61.23
2018-06-13T09:36:11.580Z,60.46
2018-06-13T09:38:41.325Z,60.67
2018-06-13T09:41:12.406Z,60.89
2018-06-13T09:43:43.004Z,60.95
2018-06-13T09:46:12.985Z,61.50
2018-06-13T09:48:42.981Z,62.86
2018-06-13T09:51:13.092Z,64.61
2018-06-13T09:53:42.776Z,63.97
2018-06-13T09:56:13.043Z,63.25
2018-06-13T09:58:50.646Z,62.27
2018-06-13T10:01:25.515Z,62.83
2018-06-13T10:03:55.299Z,62.07
2018-06-13T10:06:25.055Z,61.75
2018-06-13T10:08:55.033Z,61.78
2018-06-13T10:11:26.885Z,60.50
2018-06-13T10:13:56.525Z,60.59
2018-06-13T10:16:26.626Z,60.28
2018-06-13T10:18:56.325Z,60.14
2018-06-13T10:21:26.065Z,59.98
2018-06-13T10:23:56.033Z,60.06
2018-06-13T10:26:26.276Z,59.57
2018-06-13T10:28:55.882Z,59.23
2018-06-13T10:31:25.767Z,58.97
2018-06-13T10:33:55.461Z,58.92
2018-06-13T10:36:29.323Z,57.99
2018-06-13T10:39:00.032Z,57.56
2018-06-13T10:41:29.864Z,57.59
2018-06-13T10:43:59.656Z,57.60
2018-06-13T10:46:30.052Z,57.10
2018-06-13T10:49:00.201Z,57.57
2018-06-13T10:51:31.055Z,57.26
2018-06-13T10:54:02.288Z,57.74
2018-06-13T10:56:32.542Z,57.32
2018-06-13T10:59:03.076Z,58.20
2018-06-13T11:01:32.963Z,57.48
2018-06-13T11:04:03.892Z,57.55
2018-06-13T11:06:34.723Z,57.27
2018-06-13T11:09:07.315Z,57.33
2018-06-13T11:11:37.367Z,56.76
2018-06-13T11:14:07.249Z,55.53
2018-06-13T11:16:40.168Z,54.98
2018-06-13T11:19:09.963Z,54.34
2018-06-13T11:21:40.357Z,53.70
2018-06-13T11:24:10.846Z,53.77
2018-06-13T11:26:40.750Z,53.39
2018-06-13T11:29:11.669Z,53.29
2018-06-13T11:31:41.616Z,53.44
2018-06-13T11:34:11.411Z,52.94
2018-06-13T11:36:41.964Z,52.67
2018-06-13T11:39:12.181Z,52.50
2018-06-13T11:41:43.302Z,52.36
2018-06-13T11:44:13.297Z,52.21
2018-06-13T11:46:43.112Z,50.91
2018-06-13T11:49:12.843Z,51.36
2018-06-13T11:51:43.336Z,51.23
2018-06-13T11:54:14.055Z,51.08
2018-06-13T11:56:44.486Z,50.55
2018-06-13T11:59:14.192Z,50.26
2018-06-13T12:01:44.710Z,50.27
2018-06-13T12:04:14.572Z,50.46
2018-06-13T12:06:44.491Z,49.94
2018-06-13T12:09:15.204Z,49.98
2018-06-13T12:11:45.024Z,48.61
2018-06-13T12:14:14.934Z,49.06
2018-06-13T12:16:45.437Z,48.25
2018-06-13T12:19:15.095Z,47.94
2018-06-13T12:21:45.248Z,47.48
2018-06-13T12:24:15.060Z,48.81
2018-06-13T12:26:45.408Z,47.53
2018-06-13T12:29:15.701Z,47.84
2018-06-13T12:31:45.453Z,47.37
2018-06-13T12:34:15.189Z,46.98
2018-06-13T12:36:44.795Z,46.68
2018-06-13T12:39:14.977Z,46.87
2018-06-13T12:41:45.063Z,46.72
2018-06-13T12:44:14.673Z,46.75
2018-06-13T12:46:45.208Z,46.76
2018-06-13T12:49:14.932Z,47.29
2018-06-13T12:51:44.737Z,47.78
2018-06-13T12:54:14.521Z,47.71
2018-06-13T12:56:44.278Z,48.68
2018-06-13T12:59:14.155Z,49.18
2018-06-13T13:01:43.868Z,49.83
2018-06-13T13:04:13.552Z,49.23
2018-06-13T13:06:43.172Z,49.93
2018-06-13T13:09:14.026Z,49.35
2018-06-13T13:11:48.783Z,48.48
2018-06-13T13:14:18.809Z,49.26
2018-06-13T13:16:52.444Z,48.93
2018-06-13T13:19:25.216Z,48.88
2018-06-13T13:21:57.480Z,47.58
2018-06-13T13:24:28.709Z,47.56
2018-06-13T13:27:02.805Z,47.46
2018-06-13T13:29:35.282Z,46.32
2018-06-13T13:32:04.965Z,46.72
2018-06-13T13:34:37.160Z,46.75
2018-06-13T13:37:07.037Z,46.61
2018-06-13T13:39:39.509Z,47.06
2018-06-13T13:42:11.052Z,46.57
2018-06-13T13:44:42.280Z,47.31
2018-06-13T13:47:12.009Z,47.66
2018-06-13T13:49:42.350Z,47.83
2018-06-13T13:52:13.108Z,48.07
2018-06-13T13:54:44.698Z,47.09
2018-06-13T13:57:14.984Z,46.67
2018-06-13T13:59:48.027Z,46.93
2018-06-13T14:02:19.441Z,47.84
2018-06-13T14:04:50.315Z,47.33
2018-06-13T14:07:22.392Z,47.02
2018-06-13T14:09:52.554Z,46.88
2018-06-13T14:12:22.306Z,47.34
2018-06-13T14:14:52.839Z,46.91
2018-06-13T14:17:23.410Z,47.37
2018-06-13T14:19:54.680Z,47.63
2018-06-13T14:22:24.565Z,47.37
2018-06-13T14:24:55.527Z,48.15
2018-06-13T14:27:25.277Z,48.65
2018-06-13T14:29:56.747Z,48.34
2018-06-13T14:32:28.389Z,48.69
2018-06-13T14:35:00.266Z,48.55
2018-06-13T14:37:34.661Z,49.00
2018-06-13T14:40:06.568Z,49.84
2018-06-13T14:42:37.003Z,49.25
2018-06-13T14:45:08.119Z,48.99
2018-06-13T14:47:39.903Z,48.48
2018-06-13T14:50:16.063Z,48.73
2018-06-13T14:52:46.872Z,49.48
2018-06-13T14:55:17.876Z,48.64
2018-06-13T14:57:50.349Z,48.73
2018-06-13T15:00:22.815Z,48.55
2018-06-13T15:02:56.168Z,48.04
2018-06-13T15:05:26.809Z,46.73
2018-06-13T15:07:59.479Z,47.08
2018-06-13T15:10:30.731Z,46.84
2018-06-13T15:13:02.292Z,46.50
2018-06-13T15:15:34.718Z,46.53
2018-06-13T15:18:10.495Z,45.88
2018-06-13T15:20:43.134Z,47.06
2018-06-13T15:23:14.948Z,46.71
2018-06-13T15:25:44.990Z,47.34
2018-06-13T15:28:14.922Z,46.92
2018-06-13T15:30:44.677Z,47.26
2018-06-13T15:33:14.763Z,47.22
2018-06-13T15:35:46.106Z,47.47
2018-06-13T15:38:17.879Z,48.03
2018-06-13T15:40:49.511Z,47.80
2018-06-13T15:43:20.396Z,48.71
2018-06-13T15:45:51.467Z,49.11
2018-06-13T15:48:25.857Z,49.27
2018-06-13T15:50:58.619Z,49.34
2018-06-13T15:53:29.874Z,49.27
2018-06-13T15:56:00.534Z,49.37
2018-06-13T15:58:31.592Z,48.37
2018-06-13T16:01:01.649Z,47.94
2018-06-13T16:03:32.288Z,47.71
2018-06-13T16:06:03.077Z,47.19
2018-06-13T16:08:35.259Z,47.28
2018-06-13T16:11:06.147Z,47.12
2018-06-13T16:13:36.960Z,47.53
2018-06-13T16:16:09.514Z,48.36
2018-06-13T16:18:39.737Z,47.80
2018-06-13T16:21:10.156Z,46.93
2018-06-13T16:23:40.600Z,47.16
2018-06-13T16:26:11.064Z,46.54
2018-06-13T16:28:43.549Z,47.19
2018-06-13T16:31:14.300Z,47.54
2018-06-13T16:33:44.852Z,48.33
2018-06-13T16:36:15.414Z,47.59
2018-06-13T16:38:45.786Z,48.19
2018-06-13T16:41:16.510Z,47.78
2018-06-13T16:43:47.364Z,49.25
2018-06-13T16:46:18.670Z,49.09
2018-06-13T16:48:52.975Z,49.20
2018-06-13T16:51:39.603Z,48.41
2018-06-13T16:54:17.528Z,47.74
2018-06-13T16:56:48.271Z,48.32
2018-06-13T16:59:18.076Z,49.29
2018-06-13T17:01:51.542Z,49.56
2018-06-13T17:04:26.284Z,48.95
2018-06-13T17:06:56.648Z,48.93
2018-06-13T17:09:27.755Z,49.73
2018-06-13T17:11:57.804Z,49.84
2018-06-13T17:14:27.596Z,49.92
2018-06-13T17:16:59.193Z,48.57
2018-06-13T17:19:29.114Z,48.45
2018-06-13T17:21:59.607Z,48.52
2018-06-13T17:24:30.570Z,48.27
2018-06-13T17:27:00.699Z,49.07
2018-06-13T17:29:31.164Z,48.84
2018-06-13T17:32:00.912Z,49.13
2018-06-13T17:34:30.660Z,48.59
2018-06-13T17:37:00.324Z,48.84
2018-06-13T17:39:31.086Z,48.52
2018-06-13T17:42:00.839Z,48.03
2018-06-13T17:44:31.204Z,48.44
2018-06-13T17:47:00.873Z,47.47
2018-06-13T17:49:32.512Z,47.52
2018-06-13T17:52:02.263Z,48.22
2018-06-13T17:54:32.060Z,47.48
2018-06-13T17:57:01.844Z,47.06
2018-06-13T17:59:32.171Z,46.81
2018-06-13T18:02:01.973Z,46.72
2018-06-13T18:04:32.339Z,47.65
2018-06-13T18:07:05.366Z,48.09
2018-06-13T18:09:35.489Z,46.99
2018-06-13T18:12:05.275Z,46.60
2018-06-13T18:14:34.984Z,46.89
2018-06-13T18:17:04.888Z,47.53
2018-06-13T18:19:34.765Z,46.70
2018-06-13T18:22:04.573Z,46.50
2018-06-13T18:24:34.817Z,46.75
2018-06-13T18:27:04.801Z,46.64
2018-06-13T18:29:35.855Z,46.67
2018-06-13T18:32:05.616Z,47.02
2018-06-13T18:34:35.410Z,46.57
2018-06-13T18:37:05.327Z,46.81
2018-06-13T18:39:35.864Z,47.08
2018-06-13T18:42:06.351Z,46.59
2018-06-13T18:44:36.235Z,46.62
2018-06-13T18:47:06.089Z,46.35
2018-06-13T18:49:36.085Z,46.37
2018-06-13T18:52:06.464Z,46.64
2018-06-13T18:54:36.306Z,46.24
2018-06-13T18:57:06.173Z,46.21
2018-06-13T18:59:36.203Z,46.06
2018-06-13T19:02:06.575Z,46.01
2018-06-13T19:04:36.316Z,45.86
2018-06-13T19:07:06.242Z,46.48
2018-06-13T19:09:36.499Z,46.33
2018-06-13T19:12:06.193Z,46.43
2018-06-13T19:14:36.070Z,46.32
2018-06-13T19:17:05.946Z,46.39
2018-06-13T19:19:37.734Z,46.66
2018-06-13T19:22:07.944Z,47.00
2018-06-13T19:24:38.647Z,46.81
2018-06-13T19:27:09.422Z,46.84
2018-06-13T19:29:39.353Z,47.09
2018-06-13T19:32:09.215Z,47.48
2018-06-13T19:34:39.008Z,47.08
2018-06-13T19:37:08.954Z,47.58
2018-06-13T19:39:38.824Z,47.30
2018-06-13T19:42:08.544Z,47.30
2018-06-13T19:44:38.597Z,47.12
2018-06-13T19:48:15.312Z,47.29
2018-06-13T19:50:45.180Z,47.28
2018-06-13T19:53:21.076Z,47.14
2018-06-13T19:55:56.562Z,47.75
2018-06-13T19:58:26.914Z,47.13
2018-06-13T20:00:59.740Z,47.77
2018-06-13T20:06:11.013Z,47.79
2018-06-13T20:08:40.751Z,47.89
2018-06-13T20:11:10.753Z,47.69
2018-06-13T20:13:45.534Z,47.60
2018-06-13T20:16:27.379Z,48.09
2018-06-13T20:20:06.053Z,48.02
2018-06-13T20:22:35.901Z,48.02
2018-06-13T20:25:11.121Z,48.35
2018-06-13T20:27:45.957Z,48.18
2018-06-13T20:30:21.181Z,48.57
2018-06-13T20:32:52.621Z,48.11
2018-06-13T20:35:23.521Z,48.63
2018-06-13T20:37:53.426Z,48.56
2018-06-13T20:40:23.281Z,48.44
2018-06-13T20:42:53.054Z,48.17
2018-06-13T20:45:22.709Z,48.89
2018-06-13T20:47:53.520Z,48.55
2018-06-13T20:50:23.468Z,48.60
2018-06-13T20:52:53.354Z,48.54
2018-06-13T20:55:23.197Z,48.27
2018-06-13T20:57:53.271Z,48.80
2018-06-13T21:00:23.791Z,48.97
2018-06-13T21:02:53.527Z,49.08
2018-06-13T21:05:23.257Z,49.23
2018-06-13T21:07:53.295Z,49.29
2018-06-13T21:10:23.067Z,49.32
2018-06-13T21:12:57.477Z,49.32
2018-06-13T21:15:27.297Z,49.99
2018-06-13T21:17:57.027Z,49.99
2018-06-13T21:20:28.111Z,49.41
2018-06-13T21:22:57.882Z,49.42
2018-06-13T21:25:27.613Z,49.65
2018-06-13T21:27:57.093Z,49.36
2018-06-13T21:30:26.805Z,49.79
2018-06-13T21:32:56.574Z,49.65
2018-06-13T21:35:26.199Z,49.78
2018-06-13T21:37:55.923Z,49.21
2018-06-13T21:40:25.683Z,50.15
2018-06-13T21:42:55.422Z,49.68
2018-06-13T21:45:25.232Z,49.61
2018-06-13T21:47:54.917Z,49.53
2018-06-13T21:50:24.685Z,49.70
2018-06-13T21:52:54.442Z,50.35
2018-06-13T21:55:24.219Z,49.95
2018-06-13T21:57:54.557Z,50.30
2018-06-13T22:00:24.521Z,50.66
2018-06-13T22:02:54.726Z,50.86
2018-06-13T22:05:24.470Z,50.91
2018-06-13T22:07:57.964Z,51.15
2018-06-13T22:10:27.782Z,51.30
2018-06-13T22:12:57.513Z,51.38
2018-06-13T22:15:27.610Z,51.23
2018-06-13T22:17:58.871Z,51.61
2018-06-13T22:20:29.072Z,51.96
2018-06-13T22:22:59.331Z,51.91
2018-06-13T22:25:29.045Z,52.24
2018-06-13T22:27:58.844Z,51.93
2018-06-13T22:30:28.622Z,52.25
2018-06-13T22:32:58.561Z,52.34
2018-06-13T22:35:28.487Z,52.98
2018-06-13T22:37:58.600Z,52.87
2018-06-13T22:40:28.310Z,52.82
2018-06-13T22:42:58.038Z,53.44
2018-06-13T22:45:27.860Z,53.24
2018-06-13T22:47:57.584Z,53.15
2018-06-13T22:50:27.298Z,53.26
2018-06-13T22:52:57.353Z,53.40
2018-06-13T22:55:27.112Z,53.58
2018-06-13T22:57:56.947Z,53.69
2018-06-13T23:00:44.012Z,53.65
2018-06-13T23:03:13.726Z,53.81
2018-06-13T23:05:43.467Z,53.89
2018-06-13T23:08:13.241Z,54.48
2018-06-13T23:10:43.016Z,54.43
2018-06-13T23:13:12.775Z,54.62
2018-06-13T23:15:42.530Z,55.43
2018-06-13T23:18:12.242Z,55.56
2018-06-13T23:20:41.972Z,55.53
2018-06-13T23:23:11.661Z,56.09
2018-06-13T23:25:41.319Z,56.08
2018-06-13T23:28:10.995Z,56.05
2018-06-13T23:30:40.825Z,56.61
2018-06-13T23:33:10.587Z,57.13
2018-06-13T23:35:40.442Z,57.27
2018-06-13T23:38:10.230Z,57.11
2018-06-13T23:40:39.930Z,57.67
2018-06-13T23:43:09.561Z,57.62
2018-06-13T23:45:39.465Z,57.73
2018-06-13T23:48:09.330Z,57.57
2018-06-13T23:50:39.008Z,57.29
2018-06-13T23:53:08.746Z,58.04
2018-06-13T23:55:38.739Z,57.85
2018-06-13T23:58:09.392Z,57.59
